sensor_id;sensor_type;location;lat;lon;timestamp;P1;durP1;ratioP1;P2;durP2;ratioP2
44137;SDS011;29800;55.942;37.314;2024-01-15T00:00:26;13.02;;;6.15;;
44137;SDS011;29800;55.942;37.314;2024-01-15T00:02:52;11.80;;;6.00;;
44137;SDS011;29800;55.942;37.314;2024-01-15T00:05:18;14.02;;;6.45;;
44137;SDS011;29800;55.942;37.314;2024-01-15T00:07:44;13.32;;;6.70;;
44137;SDS011;29800;55.942;37.314;2024-01-15T00:10:10;14.88;;;5.80;;
44137;SDS011;29800;55.942;37.314;2024-01-15T00:12:36;14.80;;;6.65;;
44137;SDS011;29800;55.942;37.314;2024-01-15T00:15:03;12.30;;;6.55;;
44137;SDS011;29800;55.942;37.314;2024-01-15T00:17:30;13.95;;;5.97;;
44137;SDS011;29800;55.942;37.314;2024-01-15T00:19:56;12.20;;;5.93;;
44137;SDS011;29800;55.942;37.314;2024-01-15T00:22:25;13.55;;;6.82;;
44137;SDS011;29800;55.942;37.314;2024-01-15T00:24:52;11.45;;;6.18;;
44137;SDS011;29800;55.942;37.314;2024-01-15T00:27:18;12.63;;;6.40;;
44137;SDS011;29800;55.942;37.314;2024-01-15T00:29:44;12.00;;;6.07;;
44137;SDS011;29800;55.942;37.314;2024-01-15T00:32:10;13.68;;;6.63;;
44137;SDS011;29800;55.942;37.314;2024-01-15T00:34:36;12.75;;;6.07;;
44137;SDS011;29800;55.942;37.314;2024-01-15T00:37:03;10.65;;;6.18;;
44137;SDS011;29800;55.942;37.314;2024-01-15T00:39:29;14.38;;;6.30;;
44137;SDS011;29800;55.942;37.314;2024-01-15T00:41:55;11.63;;;6.85;;
44137;SDS011;29800;55.942;37.314;2024-01-15T00:44:21;12.88;;;7.03;;
44137;SDS011;29800;55.942;37.314;2024-01-15T00:46:47;12.27;;;6.40;;
44137;SDS011;29800;55.942;37.314;2024-01-15T00:49:13;9.50;;;5.05;;
44137;SDS011;29800;55.942;37.314;2024-01-15T00:51:40;12.50;;;6.47;;
44137;SDS011;29800;55.942;37.314;2024-01-15T00:54:06;14.10;;;5.90;;
44137;SDS011;29800;55.942;37.314;2024-01-15T00:56:32;12.05;;;6.35;;
44137;SDS011;29800;55.942;37.314;2024-01-15T00:58:59;11.48;;;6.20;;
44137;SDS011;29800;55.942;37.314;2024-01-15T01:01:26;13.65;;;6.50;;
44137;SDS011;29800;55.942;37.314;2024-01-15T01:03:52;13.10;;;6.57;;
44137;SDS011;29800;55.942;37.314;2024-01-15T01:06:18;11.95;;;6.65;;
44137;SDS011;29800;55.942;37.314;2024-01-15T01:08:44;13.10;;;6.63;;
44137;SDS011;29800;55.942;37.314;2024-01-15T01:11:15;13.55;;;6.65;;
44137;SDS011;29800;55.942;37.314;2024-01-15T01:13:42;14.27;;;7.20;;
44137;SDS011;29800;55.942;37.314;2024-01-15T01:16:08;13.95;;;7.07;;
44137;SDS011;29800;55.942;37.314;2024-01-15T01:18:34;14.02;;;6.75;;
44137;SDS011;29800;55.942;37.314;2024-01-15T01:21:01;13.13;;;7.28;;
44137;SDS011;29800;55.942;37.314;2024-01-15T01:23:28;14.38;;;8.07;;
44137;SDS011;29800;55.942;37.314;2024-01-15T01:25:54;14.25;;;6.75;;
44137;SDS011;29800;55.942;37.314;2024-01-15T01:28:21;13.00;;;6.65;;
44137;SDS011;29800;55.942;37.314;2024-01-15T01:30:47;13.77;;;6.47;;
44137;SDS011;29800;55.942;37.314;2024-01-15T01:33:13;17.30;;;7.28;;
44137;SDS011;29800;55.942;37.314;2024-01-15T01:35:39;11.10;;;5.90;;
44137;SDS011;29800;55.942;37.314;2024-01-15T01:38:05;13.27;;;6.93;;
44137;SDS011;29800;55.942;37.314;2024-01-15T01:40:31;12.20;;;6.60;;
44137;SDS011;29800;55.942;37.314;2024-01-15T01:42:57;15.75;;;7.82;;
44137;SDS011;29800;55.942;37.314;2024-01-15T01:45:23;14.35;;;6.45;;
44137;SDS011;29800;55.942;37.314;2024-01-15T01:47:50;13.48;;;7.22;;
44137;SDS011;29800;55.942;37.314;2024-01-15T01:50:16;12.68;;;7.00;;
44137;SDS011;29800;55.942;37.314;2024-01-15T01:52:43;13.50;;;7.15;;
44137;SDS011;29800;55.942;37.314;2024-01-15T01:55:09;14.10;;;7.10;;
44137;SDS011;29800;55.942;37.314;2024-01-15T01:57:37;13.60;;;7.25;;
44137;SDS011;29800;55.942;37.314;2024-01-15T02:00:03;12.98;;;6.97;;
44137;SDS011;29800;55.942;37.314;2024-01-15T02:02:38;13.70;;;7.63;;
44137;SDS011;29800;55.942;37.314;2024-01-15T02:05:04;13.43;;;7.57;;
44137;SDS011;29800;55.942;37.314;2024-01-15T02:07:34;13.13;;;7.30;;
44137;SDS011;29800;55.942;37.314;2024-01-15T02:10:00;14.10;;;7.55;;
44137;SDS011;29800;55.942;37.314;2024-01-15T02:12:27;14.80;;;7.30;;
44137;SDS011;29800;55.942;37.314;2024-01-15T02:14:53;15.25;;;7.30;;
44137;SDS011;29800;55.942;37.314;2024-01-15T02:17:19;15.07;;;7.93;;
44137;SDS011;29800;55.942;37.314;2024-01-15T02:19:46;13.63;;;7.10;;
44137;SDS011;29800;55.942;37.314;2024-01-15T02:22:12;13.70;;;7.18;;
44137;SDS011;29800;55.942;37.314;2024-01-15T02:24:38;15.63;;;7.65;;
44137;SDS011;29800;55.942;37.314;2024-01-15T02:27:04;13.65;;;7.63;;
44137;SDS011;29800;55.942;37.314;2024-01-15T02:29:30;15.05;;;7.75;;
44137;SDS011;29800;55.942;37.314;2024-01-15T02:31:57;14.18;;;7.82;;
44137;SDS011;29800;55.942;37.314;2024-01-15T02:34:23;16.08;;;7.45;;
44137;SDS011;29800;55.942;37.314;2024-01-15T02:36:49;16.95;;;8.40;;
44137;SDS011;29800;55.942;37.314;2024-01-15T02:39:15;13.00;;;7.90;;
44137;SDS011;29800;55.942;37.314;2024-01-15T02:41:41;15.27;;;7.72;;
44137;SDS011;29800;55.942;37.314;2024-01-15T02:44:07;19.52;;;8.50;;
44137;SDS011;29800;55.942;37.314;2024-01-15T02:46:33;14.25;;;8.13;;
44137;SDS011;29800;55.942;37.314;2024-01-15T02:48:59;15.57;;;8.15;;
44137;SDS011;29800;55.942;37.314;2024-01-15T02:51:25;14.13;;;8.32;;
44137;SDS011;29800;55.942;37.314;2024-01-15T02:53:52;14.75;;;7.57;;
44137;SDS011;29800;55.942;37.314;2024-01-15T02:56:18;15.15;;;8.02;;
44137;SDS011;29800;55.942;37.314;2024-01-15T02:58:44;14.68;;;7.82;;
44137;SDS011;29800;55.942;37.314;2024-01-15T03:01:10;17.20;;;7.30;;
44137;SDS011;29800;55.942;37.314;2024-01-15T03:03:36;14.55;;;7.88;;
44137;SDS011;29800;55.942;37.314;2024-01-15T03:06:02;16.25;;;8.57;;
44137;SDS011;29800;55.942;37.314;2024-01-15T03:08:29;13.68;;;7.72;;
44137;SDS011;29800;55.942;37.314;2024-01-15T03:10:55;14.63;;;8.02;;
44137;SDS011;29800;55.942;37.314;2024-01-15T03:13:21;17.63;;;8.48;;
44137;SDS011;29800;55.942;37.314;2024-01-15T03:15:47;14.80;;;8.18;;
44137;SDS011;29800;55.942;37.314;2024-01-15T03:18:14;14.65;;;7.40;;
44137;SDS011;29800;55.942;37.314;2024-01-15T03:20:40;13.60;;;7.70;;
44137;SDS011;29800;55.942;37.314;2024-01-15T03:23:06;16.65;;;8.02;;
44137;SDS011;29800;55.942;37.314;2024-01-15T03:25:32;17.52;;;8.13;;
44137;SDS011;29800;55.942;37.314;2024-01-15T03:27:58;15.18;;;8.57;;
44137;SDS011;29800;55.942;37.314;2024-01-15T03:30:24;14.13;;;7.88;;
44137;SDS011;29800;55.942;37.314;2024-01-15T03:32:50;16.75;;;8.93;;
44137;SDS011;29800;55.942;37.314;2024-01-15T03:35:16;16.85;;;8.55;;
44137;SDS011;29800;55.942;37.314;2024-01-15T03:37:43;16.13;;;8.88;;
44137;SDS011;29800;55.942;37.314;2024-01-15T03:40:09;14.88;;;8.15;;
44137;SDS011;29800;55.942;37.314;2024-01-15T03:42:35;14.35;;;8.15;;
44137;SDS011;29800;55.942;37.314;2024-01-15T03:45:02;13.85;;;8.70;;
44137;SDS011;29800;55.942;37.314;2024-01-15T03:47:29;14.00;;;7.90;;
44137;SDS011;29800;55.942;37.314;2024-01-15T03:49:55;14.45;;;8.23;;
44137;SDS011;29800;55.942;37.314;2024-01-15T03:52:21;17.25;;;8.98;;
44137;SDS011;29800;55.942;37.314;2024-01-15T03:54:47;15.15;;;8.95;;
44137;SDS011;29800;55.942;37.314;2024-01-15T03:57:13;16.45;;;8.98;;
44137;SDS011;29800;55.942;37.314;2024-01-15T03:59:40;18.23;;;9.32;;
44137;SDS011;29800;55.942;37.314;2024-01-15T04:02:07;16.42;;;8.40;;
44137;SDS011;29800;55.942;37.314;2024-01-15T04:04:33;17.15;;;9.32;;
44137;SDS011;29800;55.942;37.314;2024-01-15T04:07:00;17.95;;;9.38;;
44137;SDS011;29800;55.942;37.314;2024-01-15T04:09:26;18.58;;;10.15;;
44137;SDS011;29800;55.942;37.314;2024-01-15T04:11:52;16.15;;;9.13;;
44137;SDS011;29800;55.942;37.314;2024-01-15T04:14:18;17.38;;;9.90;;
44137;SDS011;29800;55.942;37.314;2024-01-15T04:16:44;18.05;;;9.40;;
44137;SDS011;29800;55.942;37.314;2024-01-15T04:19:10;16.63;;;8.93;;
44137;SDS011;29800;55.942;37.314;2024-01-15T04:21:36;16.05;;;8.75;;
44137;SDS011;29800;55.942;37.314;2024-01-15T04:24:03;18.10;;;9.48;;
44137;SDS011;29800;55.942;37.314;2024-01-15T04:26:29;15.20;;;9.23;;
44137;SDS011;29800;55.942;37.314;2024-01-15T04:28:55;18.20;;;9.07;;
44137;SDS011;29800;55.942;37.314;2024-01-15T04:31:24;15.85;;;8.70;;
44137;SDS011;29800;55.942;37.314;2024-01-15T04:33:52;15.88;;;8.55;;
44137;SDS011;29800;55.942;37.314;2024-01-15T04:36:19;18.83;;;9.52;;
44137;SDS011;29800;55.942;37.314;2024-01-15T04:38:45;15.38;;;8.68;;
44137;SDS011;29800;55.942;37.314;2024-01-15T04:41:12;18.98;;;9.70;;
44137;SDS011;29800;55.942;37.314;2024-01-15T04:43:39;15.45;;;8.63;;
44137;SDS011;29800;55.942;37.314;2024-01-15T04:46:06;15.98;;;8.50;;
44137;SDS011;29800;55.942;37.314;2024-01-15T04:48:33;17.40;;;8.88;;
44137;SDS011;29800;55.942;37.314;2024-01-15T04:50:59;16.17;;;9.07;;
44137;SDS011;29800;55.942;37.314;2024-01-15T04:53:26;17.60;;;9.35;;
44137;SDS011;29800;55.942;37.314;2024-01-15T04:55:52;18.73;;;9.18;;
44137;SDS011;29800;55.942;37.314;2024-01-15T04:58:18;18.90;;;9.93;;
44137;SDS011;29800;55.942;37.314;2024-01-15T05:00:44;15.50;;;8.88;;
44137;SDS011;29800;55.942;37.314;2024-01-15T05:03:10;16.08;;;9.48;;
44137;SDS011;29800;55.942;37.314;2024-01-15T05:05:37;17.73;;;9.50;;
44137;SDS011;29800;55.942;37.314;2024-01-15T05:08:03;18.70;;;9.80;;
44137;SDS011;29800;55.942;37.314;2024-01-15T05:10:29;16.70;;;9.23;;
44137;SDS011;29800;55.942;37.314;2024-01-15T05:12:55;17.70;;;9.63;;
44137;SDS011;29800;55.942;37.314;2024-01-15T05:15:22;18.40;;;10.32;;
44137;SDS011;29800;55.942;37.314;2024-01-15T05:17:48;18.02;;;10.38;;
44137;SDS011;29800;55.942;37.314;2024-01-15T05:20:14;18.33;;;10.20;;
44137;SDS011;29800;55.942;37.314;2024-01-15T05:22:40;20.25;;;9.98;;
44137;SDS011;29800;55.942;37.314;2024-01-15T05:25:06;19.30;;;9.68;;
44137;SDS011;29800;55.942;37.314;2024-01-15T05:27:32;19.55;;;10.07;;
44137;SDS011;29800;55.942;37.314;2024-01-15T05:29:58;17.98;;;9.85;;
44137;SDS011;29800;55.942;37.314;2024-01-15T05:32:24;18.67;;;10.57;;
44137;SDS011;29800;55.942;37.314;2024-01-15T05:34:51;17.60;;;9.93;;
44137;SDS011;29800;55.942;37.314;2024-01-15T05:37:17;22.77;;;10.63;;
44137;SDS011;29800;55.942;37.314;2024-01-15T05:39:43;20.17;;;10.10;;
44137;SDS011;29800;55.942;37.314;2024-01-15T05:42:09;20.30;;;10.73;;
44137;SDS011;29800;55.942;37.314;2024-01-15T05:44:35;17.65;;;10.95;;
44137;SDS011;29800;55.942;37.314;2024-01-15T05:47:01;19.67;;;12.13;;
44137;SDS011;29800;55.942;37.314;2024-01-15T05:49:29;18.10;;;10.52;;
44137;SDS011;29800;55.942;37.314;2024-01-15T05:51:55;20.08;;;10.43;;
44137;SDS011;29800;55.942;37.314;2024-01-15T05:54:22;17.25;;;10.50;;
44137;SDS011;29800;55.942;37.314;2024-01-15T05:56:48;18.00;;;10.07;;
44137;SDS011;29800;55.942;37.314;2024-01-15T05:59:14;20.33;;;11.02;;
44137;SDS011;29800;55.942;37.314;2024-01-15T06:01:40;17.98;;;10.20;;
44137;SDS011;29800;55.942;37.314;2024-01-15T06:04:07;17.45;;;10.02;;
44137;SDS011;29800;55.942;37.314;2024-01-15T06:06:33;20.45;;;10.45;;
44137;SDS011;29800;55.942;37.314;2024-01-15T06:08:59;19.83;;;10.82;;
44137;SDS011;29800;55.942;37.314;2024-01-15T06:11:31;20.25;;;11.13;;
44137;SDS011;29800;55.942;37.314;2024-01-15T06:13:58;19.52;;;10.90;;
44137;SDS011;29800;55.942;37.314;2024-01-15T06:16:26;19.40;;;10.77;;
44137;SDS011;29800;55.942;37.314;2024-01-15T06:18:52;17.95;;;9.75;;
44137;SDS011;29800;55.942;37.314;2024-01-15T06:21:19;20.13;;;11.10;;
44137;SDS011;29800;55.942;37.314;2024-01-15T06:23:46;20.63;;;10.85;;
44137;SDS011;29800;55.942;37.314;2024-01-15T06:26:12;19.15;;;10.60;;
44137;SDS011;29800;55.942;37.314;2024-01-15T06:28:38;19.58;;;10.30;;
44137;SDS011;29800;55.942;37.314;2024-01-15T06:31:06;18.70;;;10.00;;
44137;SDS011;29800;55.942;37.314;2024-01-15T06:33:32;17.48;;;10.07;;
44137;SDS011;29800;55.942;37.314;2024-01-15T06:35:58;19.83;;;11.07;;
44137;SDS011;29800;55.942;37.314;2024-01-15T06:38:25;19.35;;;10.57;;
44137;SDS011;29800;55.942;37.314;2024-01-15T06:40:51;18.20;;;10.85;;
44137;SDS011;29800;55.942;37.314;2024-01-15T06:43:17;19.15;;;10.65;;
44137;SDS011;29800;55.942;37.314;2024-01-15T06:45:44;19.13;;;11.43;;
44137;SDS011;29800;55.942;37.314;2024-01-15T06:48:10;19.70;;;10.75;;
44137;SDS011;29800;55.942;37.314;2024-01-15T06:50:40;19.15;;;10.85;;
44137;SDS011;29800;55.942;37.314;2024-01-15T06:53:06;19.85;;;11.13;;
44137;SDS011;29800;55.942;37.314;2024-01-15T06:55:33;18.33;;;10.70;;
44137;SDS011;29800;55.942;37.314;2024-01-15T06:57:59;19.70;;;11.65;;
44137;SDS011;29800;55.942;37.314;2024-01-15T07:00:26;17.08;;;10.30;;
44137;SDS011;29800;55.942;37.314;2024-01-15T07:02:53;18.33;;;10.55;;
44137;SDS011;29800;55.942;37.314;2024-01-15T07:05:23;19.60;;;11.02;;
44137;SDS011;29800;55.942;37.314;2024-01-15T07:07:49;18.42;;;10.82;;
44137;SDS011;29800;55.942;37.314;2024-01-15T07:10:16;18.85;;;10.68;;
44137;SDS011;29800;55.942;37.314;2024-01-15T07:12:42;19.83;;;10.48;;
44137;SDS011;29800;55.942;37.314;2024-01-15T07:15:09;18.17;;;10.07;;
44137;SDS011;29800;55.942;37.314;2024-01-15T07:17:35;18.63;;;10.10;;
44137;SDS011;29800;55.942;37.314;2024-01-15T07:20:07;19.05;;;9.70;;
44137;SDS011;29800;55.942;37.314;2024-01-15T07:22:37;15.80;;;9.52;;
44137;SDS011;29800;55.942;37.314;2024-01-15T07:25:04;17.67;;;10.18;;
44137;SDS011;29800;55.942;37.314;2024-01-15T07:27:32;15.52;;;9.70;;
44137;SDS011;29800;55.942;37.314;2024-01-15T07:29:59;19.25;;;11.07;;
44137;SDS011;29800;55.942;37.314;2024-01-15T07:32:25;19.00;;;10.65;;
44137;SDS011;29800;55.942;37.314;2024-01-15T07:34:51;19.02;;;10.68;;
44137;SDS011;29800;55.942;37.314;2024-01-15T07:37:18;17.63;;;10.20;;
44137;SDS011;29800;55.942;37.314;2024-01-15T07:39:44;18.73;;;10.77;;
44137;SDS011;29800;55.942;37.314;2024-01-15T07:42:10;18.08;;;10.57;;
44137;SDS011;29800;55.942;37.314;2024-01-15T07:44:36;16.85;;;9.80;;
44137;SDS011;29800;55.942;37.314;2024-01-15T07:47:03;17.67;;;9.85;;
44137;SDS011;29800;55.942;37.314;2024-01-15T07:49:29;19.75;;;10.52;;
44137;SDS011;29800;55.942;37.314;2024-01-15T07:51:55;18.88;;;10.52;;
44137;SDS011;29800;55.942;37.314;2024-01-15T07:54:21;17.77;;;10.15;;
44137;SDS011;29800;55.942;37.314;2024-01-15T07:56:55;16.88;;;10.07;;
44137;SDS011;29800;55.942;37.314;2024-01-15T07:59:26;19.95;;;10.52;;
44137;SDS011;29800;55.942;37.314;2024-01-15T08:01:53;18.83;;;10.68;;
44137;SDS011;29800;55.942;37.314;2024-01-15T08:04:19;18.00;;;11.00;;
44137;SDS011;29800;55.942;37.314;2024-01-15T08:06:47;17.35;;;10.40;;
44137;SDS011;29800;55.942;37.314;2024-01-15T08:09:15;17.65;;;10.43;;
44137;SDS011;29800;55.942;37.314;2024-01-15T08:11:41;17.17;;;9.52;;
44137;SDS011;29800;55.942;37.314;2024-01-15T08:14:08;17.08;;;9.75;;
44137;SDS011;29800;55.942;37.314;2024-01-15T08:16:36;18.48;;;9.43;;
44137;SDS011;29800;55.942;37.314;2024-01-15T08:19:02;20.17;;;10.57;;
44137;SDS011;29800;55.942;37.314;2024-01-15T08:21:29;18.08;;;9.82;;
44137;SDS011;29800;55.942;37.314;2024-01-15T08:23:56;18.50;;;10.38;;
44137;SDS011;29800;55.942;37.314;2024-01-15T08:26:23;17.60;;;10.52;;
44137;SDS011;29800;55.942;37.314;2024-01-15T08:28:50;17.20;;;10.30;;
44137;SDS011;29800;55.942;37.314;2024-01-15T08:31:16;18.48;;;10.27;;
44137;SDS011;29800;55.942;37.314;2024-01-15T08:33:43;18.25;;;10.02;;
44137;SDS011;29800;55.942;37.314;2024-01-15T08:36:09;17.58;;;10.15;;
44137;SDS011;29800;55.942;37.314;2024-01-15T08:38:35;18.92;;;10.77;;
44137;SDS011;29800;55.942;37.314;2024-01-15T08:41:01;19.92;;;11.02;;
44137;SDS011;29800;55.942;37.314;2024-01-15T08:43:28;18.05;;;10.07;;
44137;SDS011;29800;55.942;37.314;2024-01-15T08:45:55;18.10;;;9.80;;
44137;SDS011;29800;55.942;37.314;2024-01-15T08:48:21;18.67;;;10.55;;
44137;SDS011;29800;55.942;37.314;2024-01-15T08:50:48;17.27;;;10.55;;
44137;SDS011;29800;55.942;37.314;2024-01-15T08:53:14;17.55;;;9.93;;
44137;SDS011;29800;55.942;37.314;2024-01-15T08:55:40;20.10;;;10.35;;
44137;SDS011;29800;55.942;37.314;2024-01-15T08:58:10;17.60;;;9.32;;
44137;SDS011;29800;55.942;37.314;2024-01-15T09:00:36;17.95;;;10.02;;
44137;SDS011;29800;55.942;37.314;2024-01-15T09:03:02;16.48;;;9.95;;
44137;SDS011;29800;55.942;37.314;2024-01-15T09:05:29;16.40;;;10.20;;
44137;SDS011;29800;55.942;37.314;2024-01-15T09:07:55;18.83;;;10.32;;
44137;SDS011;29800;55.942;37.314;2024-01-15T09:10:21;18.73;;;10.10;;
44137;SDS011;29800;55.942;37.314;2024-01-15T09:12:48;19.00;;;10.23;;
44137;SDS011;29800;55.942;37.314;2024-01-15T09:15:16;16.63;;;9.88;;
44137;SDS011;29800;55.942;37.314;2024-01-15T09:17:43;18.60;;;10.15;;
44137;SDS011;29800;55.942;37.314;2024-01-15T09:20:09;14.90;;;8.90;;
44137;SDS011;29800;55.942;37.314;2024-01-15T09:22:38;16.30;;;9.55;;
44137;SDS011;29800;55.942;37.314;2024-01-15T09:25:07;18.10;;;10.10;;
44137;SDS011;29800;55.942;37.314;2024-01-15T09:27:36;15.07;;;9.48;;
44137;SDS011;29800;55.942;37.314;2024-01-15T09:30:03;15.25;;;9.48;;
44137;SDS011;29800;55.942;37.314;2024-01-15T09:32:32;16.80;;;9.63;;
44137;SDS011;29800;55.942;37.314;2024-01-15T09:34:59;15.55;;;9.98;;
44137;SDS011;29800;55.942;37.314;2024-01-15T09:37:25;17.38;;;9.95;;
44137;SDS011;29800;55.942;37.314;2024-01-15T09:39:51;17.42;;;9.93;;
44137;SDS011;29800;55.942;37.314;2024-01-15T09:42:18;16.55;;;9.70;;
44137;SDS011;29800;55.942;37.314;2024-01-15T09:44:45;19.27;;;9.73;;
44137;SDS011;29800;55.942;37.314;2024-01-15T09:47:12;15.43;;;9.57;;
44137;SDS011;29800;55.942;37.314;2024-01-15T09:49:39;18.52;;;10.40;;
44137;SDS011;29800;55.942;37.314;2024-01-15T09:52:06;18.45;;;9.40;;
44137;SDS011;29800;55.942;37.314;2024-01-15T09:54:33;15.45;;;9.80;;
44137;SDS011;29800;55.942;37.314;2024-01-15T09:57:00;15.90;;;9.68;;
44137;SDS011;29800;55.942;37.314;2024-01-15T09:59:27;15.88;;;8.95;;
44137;SDS011;29800;55.942;37.314;2024-01-15T10:01:54;15.05;;;9.32;;
44137;SDS011;29800;55.942;37.314;2024-01-15T10:04:22;16.55;;;9.85;;
44137;SDS011;29800;55.942;37.314;2024-01-15T10:06:50;18.08;;;10.02;;
44137;SDS011;29800;55.942;37.314;2024-01-15T10:09:17;18.65;;;9.77;;
44137;SDS011;29800;55.942;37.314;2024-01-15T10:11:44;15.80;;;9.63;;
44137;SDS011;29800;55.942;37.314;2024-01-15T10:14:11;18.08;;;10.05;;
44137;SDS011;29800;55.942;37.314;2024-01-15T10:16:39;14.07;;;9.23;;
44137;SDS011;29800;55.942;37.314;2024-01-15T10:19:06;16.48;;;9.52;;
44137;SDS011;29800;55.942;37.314;2024-01-15T10:21:33;16.08;;;9.45;;
44137;SDS011;29800;55.942;37.314;2024-01-15T10:24:03;14.73;;;8.68;;
44137;SDS011;29800;55.942;37.314;2024-01-15T10:26:31;15.50;;;9.38;;
44137;SDS011;29800;55.942;37.314;2024-01-15T10:28:58;16.05;;;9.38;;
44137;SDS011;29800;55.942;37.314;2024-01-15T10:31:26;14.50;;;8.70;;
44137;SDS011;29800;55.942;37.314;2024-01-15T10:33:53;14.60;;;8.93;;
44137;SDS011;29800;55.942;37.314;2024-01-15T10:36:19;15.68;;;9.80;;
44137;SDS011;29800;55.942;37.314;2024-01-15T10:38:46;16.27;;;9.27;;
44137;SDS011;29800;55.942;37.314;2024-01-15T10:41:12;16.95;;;9.23;;
44137;SDS011;29800;55.942;37.314;2024-01-15T10:43:38;16.35;;;8.95;;
44137;SDS011;29800;55.942;37.314;2024-01-15T10:46:07;15.32;;;9.35;;
44137;SDS011;29800;55.942;37.314;2024-01-15T10:48:34;16.30;;;9.80;;
44137;SDS011;29800;55.942;37.314;2024-01-15T10:51:01;14.15;;;9.13;;
44137;SDS011;29800;55.942;37.314;2024-01-15T10:53:38;16.40;;;9.52;;
44137;SDS011;29800;55.942;37.314;2024-01-15T10:56:05;16.88;;;9.23;;
44137;SDS011;29800;55.942;37.314;2024-01-15T10:58:33;14.25;;;8.30;;
44137;SDS011;29800;55.942;37.314;2024-01-15T11:01:01;14.73;;;8.80;;
44137;SDS011;29800;55.942;37.314;2024-01-15T11:03:28;15.30;;;8.73;;
44137;SDS011;29800;55.942;37.314;2024-01-15T11:05:55;14.10;;;8.57;;
44137;SDS011;29800;55.942;37.314;2024-01-15T11:08:21;15.05;;;8.93;;
44137;SDS011;29800;55.942;37.314;2024-01-15T11:10:48;17.10;;;9.50;;
44137;SDS011;29800;55.942;37.314;2024-01-15T11:13:22;15.75;;;8.90;;
44137;SDS011;29800;55.942;37.314;2024-01-15T11:18:36;18.17;;;9.23;;
44137;SDS011;29800;55.942;37.314;2024-01-15T11:23:46;17.05;;;9.63;;
44137;SDS011;29800;55.942;37.314;2024-01-15T11:29:29;18.52;;;10.70;;
44137;SDS011;29800;55.942;37.314;2024-01-15T11:31:59;18.30;;;10.95;;
44137;SDS011;29800;55.942;37.314;2024-01-15T11:37:25;18.10;;;9.88;;
44137;SDS011;29800;55.942;37.314;2024-01-15T11:39:52;15.23;;;8.88;;
44137;SDS011;29800;55.942;37.314;2024-01-15T11:42:20;16.33;;;9.18;;
44137;SDS011;29800;55.942;37.314;2024-01-15T11:44:47;16.33;;;9.60;;
44137;SDS011;29800;55.942;37.314;2024-01-15T11:47:14;18.40;;;9.68;;
44137;SDS011;29800;55.942;37.314;2024-01-15T11:52:36;16.13;;;9.50;;
44137;SDS011;29800;55.942;37.314;2024-01-15T11:55:19;15.73;;;8.93;;
44137;SDS011;29800;55.942;37.314;2024-01-15T11:57:54;15.48;;;9.48;;
44137;SDS011;29800;55.942;37.314;2024-01-15T12:00:21;19.05;;;10.70;;
44137;SDS011;29800;55.942;37.314;2024-01-15T12:02:48;17.23;;;9.90;;
44137;SDS011;29800;55.942;37.314;2024-01-15T12:05:17;16.90;;;9.70;;
44137;SDS011;29800;55.942;37.314;2024-01-15T12:07:49;17.90;;;10.32;;
44137;SDS011;29800;55.942;37.314;2024-01-15T12:10:16;19.17;;;11.13;;
44137;SDS011;29800;55.942;37.314;2024-01-15T12:12:53;17.65;;;9.77;;
44137;SDS011;29800;55.942;37.314;2024-01-15T12:15:27;16.77;;;10.65;;
44137;SDS011;29800;55.942;37.314;2024-01-15T12:17:56;16.95;;;10.15;;
44137;SDS011;29800;55.942;37.314;2024-01-15T12:20:27;17.60;;;9.73;;
44137;SDS011;29800;55.942;37.314;2024-01-15T12:22:54;16.50;;;9.95;;
44137;SDS011;29800;55.942;37.314;2024-01-15T12:25:21;19.25;;;10.10;;
44137;SDS011;29800;55.942;37.314;2024-01-15T12:27:48;17.10;;;9.55;;
44137;SDS011;29800;55.942;37.314;2024-01-15T12:30:15;16.98;;;9.77;;
44137;SDS011;29800;55.942;37.314;2024-01-15T12:32:41;15.98;;;9.90;;
44137;SDS011;29800;55.942;37.314;2024-01-15T12:35:08;16.38;;;9.60;;
44137;SDS011;29800;55.942;37.314;2024-01-15T12:37:36;15.85;;;9.77;;
44137;SDS011;29800;55.942;37.314;2024-01-15T12:40:03;18.10;;;10.50;;
44137;SDS011;29800;55.942;37.314;2024-01-15T12:42:32;17.50;;;9.43;;
44137;SDS011;29800;55.942;37.314;2024-01-15T12:45:00;17.58;;;9.85;;
44137;SDS011;29800;55.942;37.314;2024-01-15T12:47:29;15.68;;;9.93;;
44137;SDS011;29800;55.942;37.314;2024-01-15T12:49:57;19.15;;;10.98;;
44137;SDS011;29800;55.942;37.314;2024-01-15T12:52:27;16.60;;;10.13;;
44137;SDS011;29800;55.942;37.314;2024-01-15T12:54:54;17.08;;;10.38;;
44137;SDS011;29800;55.942;37.314;2024-01-15T12:57:20;19.17;;;11.13;;
44137;SDS011;29800;55.942;37.314;2024-01-15T12:59:47;22.35;;;12.60;;
44137;SDS011;29800;55.942;37.314;2024-01-15T13:02:13;18.35;;;10.60;;
44137;SDS011;29800;55.942;37.314;2024-01-15T13:04:39;17.02;;;10.38;;
44137;SDS011;29800;55.942;37.314;2024-01-15T13:07:06;16.73;;;10.13;;
44137;SDS011;29800;55.942;37.314;2024-01-15T13:09:33;16.42;;;9.80;;
44137;SDS011;29800;55.942;37.314;2024-01-15T13:12:00;21.42;;;11.80;;
44137;SDS011;29800;55.942;37.314;2024-01-15T13:14:27;17.65;;;10.93;;
44137;SDS011;29800;55.942;37.314;2024-01-15T13:16:54;17.40;;;9.70;;
44137;SDS011;29800;55.942;37.314;2024-01-15T13:19:21;18.90;;;10.57;;
44137;SDS011;29800;55.942;37.314;2024-01-15T13:21:48;20.05;;;11.45;;
44137;SDS011;29800;55.942;37.314;2024-01-15T13:24:15;19.55;;;10.60;;
44137;SDS011;29800;55.942;37.314;2024-01-15T13:26:42;18.10;;;10.80;;
44137;SDS011;29800;55.942;37.314;2024-01-15T13:29:08;18.33;;;10.95;;
44137;SDS011;29800;55.942;37.314;2024-01-15T13:31:34;16.35;;;10.18;;
44137;SDS011;29800;55.942;37.314;2024-01-15T13:34:00;17.13;;;9.48;;
44137;SDS011;29800;55.942;37.314;2024-01-15T13:36:27;17.95;;;10.52;;
44137;SDS011;29800;55.942;37.314;2024-01-15T13:38:53;18.70;;;10.88;;
44137;SDS011;29800;55.942;37.314;2024-01-15T13:41:20;16.88;;;10.68;;
44137;SDS011;29800;55.942;37.314;2024-01-15T13:43:54;16.98;;;10.52;;
44137;SDS011;29800;55.942;37.314;2024-01-15T13:46:24;18.83;;;11.15;;
44137;SDS011;29800;55.942;37.314;2024-01-15T13:48:55;17.60;;;10.70;;
44137;SDS011;29800;55.942;37.314;2024-01-15T13:51:22;18.30;;;11.05;;
44137;SDS011;29800;55.942;37.314;2024-01-15T13:53:50;20.02;;;11.43;;
44137;SDS011;29800;55.942;37.314;2024-01-15T13:56:18;19.73;;;10.93;;
44137;SDS011;29800;55.942;37.314;2024-01-15T13:58:45;20.33;;;11.43;;
44137;SDS011;29800;55.942;37.314;2024-01-15T14:01:11;18.27;;;11.05;;
44137;SDS011;29800;55.942;37.314;2024-01-15T14:03:37;18.05;;;11.05;;
44137;SDS011;29800;55.942;37.314;2024-01-15T14:06:03;19.90;;;11.45;;
44137;SDS011;29800;55.942;37.314;2024-01-15T14:08:35;20.92;;;11.65;;
44137;SDS011;29800;55.942;37.314;2024-01-15T14:11:03;17.90;;;11.00;;
44137;SDS011;29800;55.942;37.314;2024-01-15T14:13:32;18.42;;;10.60;;
44137;SDS011;29800;55.942;37.314;2024-01-15T14:15:59;20.70;;;12.05;;
44137;SDS011;29800;55.942;37.314;2024-01-15T14:18:26;18.67;;;10.55;;
44137;SDS011;29800;55.942;37.314;2024-01-15T14:20:53;21.55;;;11.23;;
44137;SDS011;29800;55.942;37.314;2024-01-15T14:23:19;18.73;;;10.95;;
44137;SDS011;29800;55.942;37.314;2024-01-15T14:25:46;18.83;;;9.70;;
44137;SDS011;29800;55.942;37.314;2024-01-15T14:28:12;19.85;;;11.20;;